sensor_id;sensor_type;location;lat;lon;timestamp;P1;durP1;ratioP1;P2;durP2;ratioP2
36303;SDS011;22335;49.800;8.596;2023-09-19T00:02:52;7.05;;;5.60;;
36303;SDS011;22335;49.800;8.596;2023-09-19T00:09:35;6.80;;;5.97;;
36303;SDS011;22335;49.800;8.596;2023-09-19T00:16:20;6.10;;;5.57;;
36303;SDS011;22335;49.800;8.596;2023-09-19T00:23:04;6.50;;;5.70;;
36303;SDS011;22335;49.800;8.596;2023-09-19T00:29:49;6.85;;;6.30;;
36303;SDS011;22335;49.800;8.596;2023-09-19T00:36:35;6.15;;;5.75;;
36303;SDS011;22335;49.800;8.596;2023-09-19T00:43:20;6.80;;;6.13;;
36303;SDS011;22335;49.800;8.596;2023-09-19T00:50:07;6.00;;;5.60;;
36303;SDS011;22335;49.800;8.596;2023-09-19T00:56:57;6.78;;;6.13;;
36303;SDS011;22335;49.800;8.596;2023-09-19T01:03:41;6.55;;;5.90;;
36303;SDS011;22335;49.800;8.596;2023-09-19T01:10:26;7.10;;;6.60;;
36303;SDS011;22335;49.800;8.596;2023-09-19T01:17:14;6.30;;;5.70;;
36303;SDS011;22335;49.800;8.596;2023-09-19T01:24:11;6.20;;;5.80;;
36303;SDS011;22335;49.800;8.596;2023-09-19T01:31:25;6.83;;;6.23;;
36303;SDS011;22335;49.800;8.596;2023-09-19T01:38:15;6.47;;;5.88;;
36303;SDS011;22335;49.800;8.596;2023-09-19T01:51:56;5.93;;;5.53;;
36303;SDS011;22335;49.800;8.596;2023-09-19T01:58:48;6.32;;;5.88;;
36303;SDS011;22335;49.800;8.596;2023-09-19T02:05:36;6.55;;;5.97;;
36303;SDS011;22335;49.800;8.596;2023-09-19T02:12:22;6.53;;;6.03;;
36303;SDS011;22335;49.800;8.596;2023-09-19T02:19:06;6.25;;;5.75;;
36303;SDS011;22335;49.800;8.596;2023-09-19T02:25:52;7.97;;;6.05;;
36303;SDS011;22335;49.800;8.596;2023-09-19T02:32:37;6.60;;;6.03;;
36303;SDS011;22335;49.800;8.596;2023-09-19T02:39:21;6.18;;;5.65;;
36303;SDS011;22335;49.800;8.596;2023-09-19T03:01:09;6.18;;;5.60;;
36303;SDS011;22335;49.800;8.596;2023-09-19T03:07:53;6.50;;;6.00;;
36303;SDS011;22335;49.800;8.596;2023-09-19T03:14:37;6.18;;;5.65;;
36303;SDS011;22335;49.800;8.596;2023-09-19T03:21:22;7.22;;;6.30;;
36303;SDS011;22335;49.800;8.596;2023-09-19T03:34:51;6.25;;;5.75;;
36303;SDS011;22335;49.800;8.596;2023-09-19T03:41:36;5.88;;;5.47;;
36303;SDS011;22335;49.800;8.596;2023-09-19T03:48:20;6.93;;;6.33;;
36303;SDS011;22335;49.800;8.596;2023-09-19T03:55:05;6.17;;;5.77;;
36303;SDS011;22335;49.800;8.596;2023-09-19T04:01:53;7.07;;;6.45;;
36303;SDS011;22335;49.800;8.596;2023-09-19T04:08:38;6.90;;;6.20;;
36303;SDS011;22335;49.800;8.596;2023-09-19T04:15:23;6.43;;;5.82;;
36303;SDS011;22335;49.800;8.596;2023-09-19T04:22:09;7.53;;;6.30;;
36303;SDS011;22335;49.800;8.596;2023-09-19T04:28:54;6.85;;;6.35;;
36303;SDS011;22335;49.800;8.596;2023-09-19T04:35:37;7.50;;;6.80;;
36303;SDS011;22335;49.800;8.596;2023-09-19T04:42:26;7.70;;;7.05;;
36303;SDS011;22335;49.800;8.596;2023-09-19T04:49:12;7.90;;;7.20;;
36303;SDS011;22335;49.800;8.596;2023-09-19T04:55:56;8.35;;;7.63;;
36303;SDS011;22335;49.800;8.596;2023-09-19T05:02:41;8.48;;;7.03;;
36303;SDS011;22335;49.800;8.596;2023-09-19T05:09:25;9.05;;;7.60;;
36303;SDS011;22335;49.800;8.596;2023-09-19T05:16:09;7.72;;;7.15;;
36303;SDS011;22335;49.800;8.596;2023-09-19T05:22:58;7.97;;;7.18;;
36303;SDS011;22335;49.800;8.596;2023-09-19T05:29:43;8.15;;;7.50;;
36303;SDS011;22335;49.800;8.596;2023-09-19T05:36:27;8.05;;;7.30;;
36303;SDS011;22335;49.800;8.596;2023-09-19T05:43:13;7.97;;;7.25;;
36303;SDS011;22335;49.800;8.596;2023-09-19T05:49:57;8.43;;;7.03;;
36303;SDS011;22335;49.800;8.596;2023-09-19T05:56:40;7.88;;;7.20;;
36303;SDS011;22335;49.800;8.596;2023-09-19T06:03:25;8.45;;;7.10;;
36303;SDS011;22335;49.800;8.596;2023-09-19T06:10:10;7.40;;;6.63;;
36303;SDS011;22335;49.800;8.596;2023-09-19T06:16:54;8.98;;;6.70;;
36303;SDS011;22335;49.800;8.596;2023-09-19T06:23:39;8.38;;;7.60;;
36303;SDS011;22335;49.800;8.596;2023-09-19T06:30:23;10.75;;;6.88;;
36303;SDS011;22335;49.800;8.596;2023-09-19T06:37:07;10.00;;;7.10;;
36303;SDS011;22335;49.800;8.596;2023-09-19T06:43:52;7.82;;;6.57;;
36303;SDS011;22335;49.800;8.596;2023-09-19T06:50:35;8.55;;;7.35;;
36303;SDS011;22335;49.800;8.596;2023-09-19T06:57:20;6.85;;;6.15;;
36303;SDS011;22335;49.800;8.596;2023-09-19T07:04:05;7.80;;;6.50;;
36303;SDS011;22335;49.800;8.596;2023-09-19T07:10:48;9.47;;;6.60;;
36303;SDS011;22335;49.800;8.596;2023-09-19T07:17:34;7.60;;;6.50;;
36303;SDS011;22335;49.800;8.596;2023-09-19T07:24:19;8.25;;;6.72;;
36303;SDS011;22335;49.800;8.596;2023-09-19T07:31:04;8.32;;;6.65;;
36303;SDS011;22335;49.800;8.596;2023-09-19T07:37:48;8.73;;;6.18;;
36303;SDS011;22335;49.800;8.596;2023-09-19T07:44:36;9.30;;;6.47;;
36303;SDS011;22335;49.800;8.596;2023-09-19T07:51:19;7.63;;;6.30;;
36303;SDS011;22335;49.800;8.596;2023-09-19T07:58:03;9.20;;;7.47;;
36303;SDS011;22335;49.800;8.596;2023-09-19T08:04:49;7.93;;;7.13;;
36303;SDS011;22335;49.800;8.596;2023-09-19T08:11:33;8.90;;;7.77;;
36303;SDS011;22335;49.800;8.596;2023-09-19T08:18:17;9.52;;;6.80;;
36303;SDS011;22335;49.800;8.596;2023-09-19T08:25:02;8.48;;;6.40;;
36303;SDS011;22335;49.800;8.596;2023-09-19T08:31:47;6.93;;;5.95;;
36303;SDS011;22335;49.800;8.596;2023-09-19T08:38:33;7.05;;;6.38;;
36303;SDS011;22335;49.800;8.596;2023-09-19T08:45:19;7.20;;;5.88;;
36303;SDS011;22335;49.800;8.596;2023-09-19T08:52:12;6.63;;;5.85;;
36303;SDS011;22335;49.800;8.596;2023-09-19T08:59:05;9.07;;;6.40;;
36303;SDS011;22335;49.800;8.596;2023-09-19T09:05:51;7.05;;;5.78;;
36303;SDS011;22335;49.800;8.596;2023-09-19T09:19:22;6.90;;;6.30;;
36303;SDS011;22335;49.800;8.596;2023-09-19T09:26:07;6.15;;;5.55;;
36303;SDS011;22335;49.800;8.596;2023-09-19T09:32:51;8.20;;;6.72;;
36303;SDS011;22335;49.800;8.596;2023-09-19T09:39:53;8.05;;;6.45;;
36303;SDS011;22335;49.800;8.596;2023-09-19T09:46:43;8.45;;;6.40;;
36303;SDS011;22335;49.800;8.596;2023-09-19T09:54:09;7.45;;;6.32;;
36303;SDS011;22335;49.800;8.596;2023-09-19T10:00:55;6.85;;;6.10;;
36303;SDS011;22335;49.800;8.596;2023-09-19T10:07:44;6.47;;;5.75;;
36303;SDS011;22335;49.800;8.596;2023-09-19T10:14:32;7.15;;;6.32;;
36303;SDS011;22335;49.800;8.596;2023-09-19T10:21:20;8.43;;;6.10;;
36303;SDS011;22335;49.800;8.596;2023-09-19T10:28:06;7.18;;;6.22;;
36303;SDS011;22335;49.800;8.596;2023-09-19T10:34:53;8.70;;;6.03;;
36303;SDS011;22335;49.800;8.596;2023-09-19T10:48:24;7.95;;;6.07;;
36303;SDS011;22335;49.800;8.596;2023-09-19T10:55:09;10.15;;;6.75;;
36303;SDS011;22335;49.800;8.596;2023-09-19T11:02:00;10.95;;;6.70;;
36303;SDS011;22335;49.800;8.596;2023-09-19T11:09:02;9.43;;;6.30;;
36303;SDS011;22335;49.800;8.596;2023-09-19T11:16:04;8.30;;;5.88;;
36303;SDS011;22335;49.800;8.596;2023-09-19T11:30:26;7.88;;;6.15;;
36303;SDS011;22335;49.800;8.596;2023-09-19T11:44:52;7.60;;;6.30;;
36303;SDS011;22335;49.800;8.596;2023-09-19T11:51:41;6.57;;;5.68;;
36303;SDS011;22335;49.800;8.596;2023-09-19T11:58:26;8.13;;;5.70;;
36303;SDS011;22335;49.800;8.596;2023-09-19T12:05:11;12.02;;;5.80;;
36303;SDS011;22335;49.800;8.596;2023-09-19T12:11:57;9.25;;;6.13;;
36303;SDS011;22335;49.800;8.596;2023-09-19T12:18:41;8.40;;;5.80;;
36303;SDS011;22335;49.800;8.596;2023-09-19T12:25:40;7.60;;;5.65;;
36303;SDS011;22335;49.800;8.596;2023-09-19T12:32:35;10.75;;;5.50;;
36303;SDS011;22335;49.800;8.596;2023-09-19T12:39:23;6.55;;;5.28;;
36303;SDS011;22335;49.800;8.596;2023-09-19T12:46:08;10.90;;;6.05;;
36303;SDS011;22335;49.800;8.596;2023-09-19T12:52:53;6.00;;;5.45;;
36303;SDS011;22335;49.800;8.596;2023-09-19T12:59:37;5.85;;;5.35;;
36303;SDS011;22335;49.800;8.596;2023-09-19T13:06:34;6.25;;;5.47;;
36303;SDS011;22335;49.800;8.596;2023-09-19T13:13:25;5.20;;;4.70;;
36303;SDS011;22335;49.800;8.596;2023-09-19T13:20:20;6.45;;;5.53;;
36303;SDS011;22335;49.800;8.596;2023-09-19T13:27:08;5.97;;;5.20;;
36303;SDS011;22335;49.800;8.596;2023-09-19T13:33:53;11.43;;;5.70;;
36303;SDS011;22335;49.800;8.596;2023-09-19T13:40:37;7.23;;;5.17;;
36303;SDS011;22335;49.800;8.596;2023-09-19T13:47:23;6.07;;;5.07;;
36303;SDS011;22335;49.800;8.596;2023-09-19T13:54:09;6.53;;;5.53;;
36303;SDS011;22335;49.800;8.596;2023-09-19T14:00:55;8.27;;;5.05;;
36303;SDS011;22335;49.800;8.596;2023-09-19T14:07:41;4.88;;;4.43;;
36303;SDS011;22335;49.800;8.596;2023-09-19T14:14:26;6.00;;;5.25;;
36303;SDS011;22335;49.800;8.596;2023-09-19T14:21:10;7.13;;;5.43;;
36303;SDS011;22335;49.800;8.596;2023-09-19T14:27:53;5.82;;;5.43;;
36303;SDS011;22335;49.800;8.596;2023-09-19T14:34:38;6.00;;;4.80;;
36303;SDS011;22335;49.800;8.596;2023-09-19T14:41:24;5.35;;;4.85;;
36303;SDS011;22335;49.800;8.596;2023-09-19T14:48:07;5.30;;;4.80;;
36303;SDS011;22335;49.800;8.596;2023-09-19T14:54:53;5.00;;;4.68;;
36303;SDS011;22335;49.800;8.596;2023-09-19T15:01:37;5.05;;;4.72;;
36303;SDS011;22335;49.800;8.596;2023-09-19T15:08:22;5.27;;;4.87;;
36303;SDS011;22335;49.800;8.596;2023-09-19T15:15:07;6.50;;;4.85;;
36303;SDS011;22335;49.800;8.596;2023-09-19T15:21:51;5.28;;;4.75;;
36303;SDS011;22335;49.800;8.596;2023-09-19T15:28:35;5.03;;;4.50;;
36303;SDS011;22335;49.800;8.596;2023-09-19T15:35:20;5.40;;;4.97;;
36303;SDS011;22335;49.800;8.596;2023-09-19T15:42:04;5.30;;;4.87;;
36303;SDS011;22335;49.800;8.596;2023-09-19T15:48:48;5.85;;;5.03;;
36303;SDS011;22335;49.800;8.596;2023-09-19T15:55:33;4.50;;;4.10;;
36303;SDS011;22335;49.800;8.596;2023-09-19T16:02:25;5.18;;;4.68;;
36303;SDS011;22335;49.800;8.596;2023-09-19T16:09:09;5.10;;;4.70;;
36303;SDS011;22335;49.800;8.596;2023-09-19T16:15:54;4.72;;;4.32;;
36303;SDS011;22335;49.800;8.596;2023-09-19T16:22:38;5.20;;;4.87;;
36303;SDS011;22335;49.800;8.596;2023-09-19T16:29:22;5.63;;;5.22;;
36303;SDS011;22335;49.800;8.596;2023-09-19T16:36:11;5.30;;;4.90;;
36303;SDS011;22335;49.800;8.596;2023-09-19T16:42:56;7.13;;;4.50;;
36303;SDS011;22335;49.800;8.596;2023-09-19T16:49:39;4.90;;;4.45;;
36303;SDS011;22335;49.800;8.596;2023-09-19T16:56:24;5.13;;;4.70;;
36303;SDS011;22335;49.800;8.596;2023-09-19T17:03:09;4.63;;;4.32;;
36303;SDS011;22335;49.800;8.596;2023-09-19T17:09:53;5.27;;;4.77;;
36303;SDS011;22335;49.800;8.596;2023-09-19T17:16:38;5.03;;;4.40;;
36303;SDS011;22335;49.800;8.596;2023-09-19T17:23:23;5.28;;;4.88;;
36303;SDS011;22335;49.800;8.596;2023-09-19T17:30:07;5.30;;;4.90;;
36303;SDS011;22335;49.800;8.596;2023-09-19T17:36:56;4.75;;;4.35;;
36303;SDS011;22335;49.800;8.596;2023-09-19T17:43:40;4.80;;;4.50;;
36303;SDS011;22335;49.800;8.596;2023-09-19T17:50:24;6.05;;;4.90;;
36303;SDS011;22335;49.800;8.596;2023-09-19T17:57:10;4.82;;;4.53;;
36303;SDS011;22335;49.800;8.596;2023-09-19T18:03:53;7.83;;;5.33;;
36303;SDS011;22335;49.800;8.596;2023-09-19T18:10:39;4.97;;;4.65;;
36303;SDS011;22335;49.800;8.596;2023-09-19T18:17:24;5.32;;;4.80;;
36303;SDS011;22335;49.800;8.596;2023-09-19T18:24:08;5.00;;;4.70;;
36303;SDS011;22335;49.800;8.596;2023-09-19T18:30:55;5.32;;;4.82;;
36303;SDS011;22335;49.800;8.596;2023-09-19T18:37:41;5.53;;;5.13;;
36303;SDS011;22335;49.800;8.596;2023-09-19T18:44:25;5.30;;;4.97;;
36303;SDS011;22335;49.800;8.596;2023-09-19T18:51:08;5.05;;;4.60;;
36303;SDS011;22335;49.800;8.596;2023-09-19T18:57:54;5.47;;;4.97;;
36303;SDS011;22335;49.800;8.596;2023-09-19T19:04:39;5.72;;;5.18;;
36303;SDS011;22335;49.800;8.596;2023-09-19T19:11:22;5.20;;;4.90;;
36303;SDS011;22335;49.800;8.596;2023-09-19T19:24:52;4.80;;;4.50;;
36303;SDS011;22335;49.800;8.596;2023-09-19T19:31:37;5.28;;;4.88;;
36303;SDS011;22335;49.800;8.596;2023-09-19T19:38:22;5.68;;;5.15;;
36303;SDS011;22335;49.800;8.596;2023-09-19T19:45:07;5.80;;;5.40;;
36303;SDS011;22335;49.800;8.596;2023-09-19T19:51:51;6.57;;;4.93;;
36303;SDS011;22335;49.800;8.596;2023-09-19T19:58:37;5.25;;;4.75;;
36303;SDS011;22335;49.800;8.596;2023-09-19T20:05:20;5.70;;;5.30;;
36303;SDS011;22335;49.800;8.596;2023-09-19T20:12:04;4.75;;;4.45;;
36303;SDS011;22335;49.800;8.596;2023-09-19T20:18:50;5.57;;;5.13;;
36303;SDS011;22335;49.800;8.596;2023-09-19T20:25:34;5.25;;;4.85;;
36303;SDS011;22335;49.800;8.596;2023-09-19T20:32:20;5.60;;;5.10;;
36303;SDS011;22335;49.800;8.596;2023-09-19T20:39:05;5.10;;;4.68;;
36303;SDS011;22335;49.800;8.596;2023-09-19T20:45:51;5.75;;;5.28;;
36303;SDS011;22335;49.800;8.596;2023-09-19T20:52:35;5.40;;;4.97;;
36303;SDS011;22335;49.800;8.596;2023-09-19T20:59:21;5.67;;;5.17;;
36303;SDS011;22335;49.800;8.596;2023-09-19T21:06:08;5.20;;;4.88;;
36303;SDS011;22335;49.800;8.596;2023-09-19T21:12:54;5.55;;;5.15;;
36303;SDS011;22335;49.800;8.596;2023-09-19T21:19:39;5.47;;;5.18;;
36303;SDS011;22335;49.800;8.596;2023-09-19T21:26:22;5.50;;;5.05;;
36303;SDS011;22335;49.800;8.596;2023-09-19T21:33:06;5.18;;;4.88;;
36303;SDS011;22335;49.800;8.596;2023-09-19T21:39:51;5.68;;;5.25;;
36303;SDS011;22335;49.800;8.596;2023-09-19T21:46:35;5.43;;;5.00;;
36303;SDS011;22335;49.800;8.596;2023-09-19T21:53:21;5.57;;;5.15;;
36303;SDS011;22335;49.800;8.596;2023-09-19T22:00:07;5.50;;;5.03;;
36303;SDS011;22335;49.800;8.596;2023-09-19T22:07:05;5.70;;;5.20;;
36303;SDS011;22335;49.800;8.596;2023-09-19T22:13:50;5.45;;;5.13;;
36303;SDS011;22335;49.800;8.596;2023-09-19T22:20:35;5.95;;;5.47;;
36303;SDS011;22335;49.800;8.596;2023-09-19T22:27:26;6.22;;;5.55;;
36303;SDS011;22335;49.800;8.596;2023-09-19T22:34:11;5.60;;;5.20;;
36303;SDS011;22335;49.800;8.596;2023-09-19T22:40:56;7.25;;;5.55;;
36303;SDS011;22335;49.800;8.596;2023-09-19T22:47:44;5.80;;;5.30;;
36303;SDS011;22335;49.800;8.596;2023-09-19T22:54:28;6.18;;;5.70;;
36303;SDS011;22335;49.800;8.596;2023-09-19T23:01:19;6.15;;;5.70;;
36303;SDS011;22335;49.800;8.596;2023-09-19T23:08:10;6.05;;;5.63;;
36303;SDS011;22335;49.800;8.596;2023-09-19T23:14:55;6.78;;;5.93;;
36303;SDS011;22335;49.800;8.596;2023-09-19T23:21:43;6.00;;;5.63;;
36303;SDS011;22335;49.800;8.596;2023-09-19T23:28:32;6.00;;;5.47;;
36303;SDS011;22335;49.800;8.596;2023-09-19T23:35:24;6.40;;;5.80;;
36303;SDS011;22335;49.800;8.596;2023-09-19T23:42:10;6.35;;;5.78;;
36303;SDS011;22335;49.800;8.596;2023-09-19T23:48:53;6.17;;;5.70;;
36303;SDS011;22335;49.800;8.596;2023-09-19T23:55:38;6.05;;;5.55;;
